Time;durP1;ratioP1;P1;durP2;ratioP2;P2;SDS_P1;SDS_P2;PMS_P1;PMS_P2;Temp;Humidity;BMP_temperature;BMP_pressure;BME280_temperature;BME280_humidity;BME280_pressure;Samples;Min_cycle;Max_cycle;Signal;HPM_P1;HPM_P2
2022/11/15 00:02:10;;;;;;;237.33;49.80;;;;;;;6.11;100.00;98911.16;5026998;28;20060;-62
2022/11/15 00:04:54;;;;;;;258.67;50.47;;;;;;;6.06;100.00;98930.63;5028677;28;20081;-61
2022/11/15 00:07:39;;;;;;;359.03;60.90;;;;;;;6.01;100.00;98922.13;5030139;28;20060;-61
2022/11/15 00:10:24;;;;;;;252.33;48.47;;;;;;;5.96;100.00;98922.97;5029212;28;20530;-61
2022/11/15 00:13:12;;;;;;;199.70;46.17;;;;;;;5.96;100.00;98912.78;5014779;28;20075;-61
2022/11/15 00:16:01;;;;;;;339.47;60.33;;;;;;;5.96;100.00;98925.50;5028761;28;20523;-61
2022/11/15 00:18:45;;;;;;;159.93;41.83;;;;;;;5.99;100.00;98922.09;5028732;28;20115;-60
2022/11/15 00:21:29;;;;;;;271.00;49.27;;;;;;;5.81;100.00;98901.66;5029170;28;20056;-62
2022/11/15 00:24:13;;;;;;;160.37;40.47;;;;;;;5.87;100.00;98910.19;5030497;28;20197;-63
2022/11/15 00:26:57;;;;;;;232.83;47.60;;;;;;;5.85;100.00;98911.88;5029542;28;20063;-62
2022/11/15 00:29:43;;;;;;;166.63;44.57;;;;;;;5.83;100.00;98899.97;5029939;28;20099;-67
2022/11/15 00:32:31;;;;;;;210.15;47.53;;;;;;;5.76;100.00;98888.06;5028699;28;20060;-62
2022/11/15 00:35:15;;;;;;;204.67;45.90;;;;;;;5.75;100.00;98879.59;5030926;28;20102;-62
2022/11/15 00:38:00;;;;;;;149.83;40.13;;;;;;;5.86;100.00;98899.97;5031962;28;20088;-62
2022/11/15 00:40:44;;;;;;;292.85;50.83;;;;;;;5.86;100.00;98899.97;5026120;28;20121;-62
2022/11/15 00:43:29;;;;;;;362.77;60.20;;;;;;;5.81;100.00;98904.22;5029252;28;20084;-62
2022/11/15 00:46:14;;;;;;;227.57;44.87;;;;;;;5.75;100.00;98871.09;5028344;28;20159;-60
2022/11/15 00:48:58;;;;;;;208.97;45.83;;;;;;;5.79;100.00;98878.75;5027554;28;20728;-60
2022/11/15 00:51:42;;;;;;;378.97;63.27;;;;;;;5.84;100.00;98888.94;5013179;28;20184;-60
2022/11/15 00:54:27;;;;;;;206.37;46.07;;;;;;;5.89;100.00;98894.94;5022236;28;20056;-62
2022/11/15 00:57:11;;;;;;;348.67;60.55;;;;;;;5.76;100.00;98866.03;5027327;28;20056;-60
2022/11/15 00:59:55;;;;;;;392.63;63.67;;;;;;;5.81;100.00;98871.97;5027150;28;20083;-61
2022/11/15 01:02:40;;;;;;;426.53;62.73;;;;;;;5.92;100.00;98885.63;5028714;28;20214;-60
2022/11/15 01:05:24;;;;;;;320.07;59.20;;;;;;;5.89;100.00;98880.53;5026605;28;20083;-62
2022/11/15 01:08:15;;;;;;;247.90;45.50;;;;;;;5.88;100.00;98858.47;5028916;28;20430;-62
2022/11/15 01:11:04;;;;;;;330.70;56.97;;;;;;;5.94;100.00;98870.38;5027043;28;20111;-61
2022/11/15 01:13:48;;;;;;;336.57;55.83;;;;;;;5.85;100.00;98868.63;5029423;28;20068;-59
2022/11/15 01:16:33;;;;;;;425.83;62.57;;;;;;;5.82;100.00;98858.41;5022616;28;20044;-62
2022/11/15 01:19:17;;;;;;;325.43;59.20;;;;;;;5.72;100.00;98843.13;5029578;28;20081;-64
2022/11/15 01:22:02;;;;;;;261.90;50.43;;;;;;;5.86;100.00;98864.34;5029592;28;20100;-60
2022/11/15 01:24:46;;;;;;;331.37;55.47;;;;;;;5.71;100.00;98842.28;5028476;28;20052;-60
2022/11/15 01:27:30;;;;;;;552.97;84.37;;;;;;;5.84;100.00;98866.91;5033272;28;20130;-61
2022/11/15 01:30:14;;;;;;;291.80;51.20;;;;;;;5.75;100.00;98838.88;5032138;28;20123;-62
2022/11/15 01:32:58;;;;;;;369.40;57.67;;;;;;;5.93;100.00;98845.78;5032325;28;20088;-61
2022/11/15 01:35:43;;;;;;;403.00;60.43;;;;;;;5.82;100.00;98858.41;5031140;28;20099;-62
2022/11/15 01:38:27;;;;;;;377.43;57.17;;;;;;;5.74;100.00;98836.34;5033750;28;20056;-61
2022/11/15 01:41:20;;;;;;;336.83;56.83;;;;;;;5.78;100.00;98850.75;5044691;28;20123;-63
2022/11/15 01:44:40;;;;;;;457.93;64.70;;;;;;;5.81;100.00;98856.69;5033417;28;20524;-61
2022/11/15 01:47:31;;;;;;;476.50;64.63;;;;;;;5.80;100.00;98854.19;5032904;28;20044;-62
2022/11/15 01:50:20;;;;;;;328.03;53.27;;;;;;;5.71;100.00;98832.09;5031920;28;20142;-62
2022/11/15 01:53:05;;;;;;;419.67;61.70;;;;;;;5.72;100.00;98838.03;5033955;28;20348;-63
2022/11/15 01:55:49;;;;;;;240.83;45.40;;;;;;;5.71;100.00;98847.34;5031367;28;20450;-62
2022/11/15 01:58:35;;;;;;;409.00;59.17;;;;;;;5.66;100.00;98843.09;5013069;28;20140;-60
2022/11/15 02:01:19;;;;;;;206.97;39.47;;;;;;;5.50;100.00;98797.28;5031848;28;20056;-60
2022/11/15 02:04:16;;;;;;;231.17;47.97;;;;;;;5.53;100.00;98809.97;5033571;28;20057;-61
2022/11/15 02:07:04;;;;;;;372.47;55.07;;;;;;;5.63;100.00;98825.28;5030414;28;20064;-60
2022/11/15 02:09:49;;;;;;;287.13;47.60;;;;;;;5.55;100.00;98824.41;5032696;28;20048;-61
2022/11/15 02:12:34;;;;;;;295.63;51.15;;;;;;;5.56;100.00;98826.13;5032042;28;20059;-61
2022/11/15 02:15:18;;;;;;;350.87;51.30;;;;;;;5.51;100.00;98826.09;5032504;28;20057;-61
2022/11/15 02:18:28;;;;;;;309.00;49.20;;;;;;;5.51;100.00;98824.41;5033489;28;20060;-62
2022/11/15 02:21:35;;;;;;;348.97;50.93;;;;;;;5.31;100.00;98803.09;5033822;28;20596;-60
2022/11/15 02:24:43;;;;;;;188.73;39.13;;;;;;;5.39;100.00;98826.00;5031670;28;20084;-60
2022/11/15 02:27:33;;;;;;;348.23;55.60;;;;;;;5.33;100.00;98831.09;4967380;28;20057;-61
2022/11/15 02:30:42;;;;;;;207.57;38.80;;;;;;;5.26;100.00;98825.09;4967756;28;20057;-61
2022/11/15 02:33:42;;;;;;;281.27;44.50;;;;;;;5.28;100.00;98825.97;4968283;28;20157;-61
2022/11/15 02:36:34;;;;;;;153.60;33.73;;;;;;;5.28;100.00;98833.59;4966955;28;20189;-62
2022/11/15 02:39:28;;;;;;;327.67;46.93;;;;;;;5.25;100.00;98833.59;4969475;28;20571;-61
2022/11/15 02:45:35;;;;;;;297.23;49.97;;;;;;;5.19;100.00;98825.91;4969036;28;20580;-60
2022/11/15 02:48:22;;;;;;;149.53;34.73;;;;;;;5.26;100.00;98820.03;4965247;28;20342;-61
2022/11/15 02:51:07;;;;;;;314.77;47.97;;;;;;;5.25;100.00;98830.19;4968649;28;20212;-61
2022/11/15 02:53:51;;;;;;;80.05;25.33;;;;;;;5.29;100.00;98827.69;4937090;28;20062;-61
2022/11/15 02:56:36;;;;;;;289.97;44.33;;;;;;;5.31;100.00;98830.22;4966888;28;20101;-62
2022/11/15 02:59:39;;;;;;;234.40;45.58;;;;;;;5.31;100.00;98828.53;4966489;28;20069;-61
2022/11/15 03:02:41;;;;;;;356.67;54.63;;;;;;;5.32;100.00;98825.16;4967130;28;20053;-62
2022/11/15 03:05:45;;;;;;;241.23;45.60;;;;;;;5.35;100.00;98825.16;5027897;28;20100;-61
2022/11/15 03:08:31;;;;;;;193.33;43.93;;;;;;;5.40;100.00;98825.19;5028893;28;20418;-61
2022/11/15 03:11:18;;;;;;;245.53;45.67;;;;;;;5.44;100.00;98815.03;5029943;28;20138;-61
2022/11/15 03:14:08;;;;;;;172.47;41.33;;;;;;;5.52;100.00;98815.06;5037854;28;20048;-60
2022/11/15 03:17:05;;;;;;;186.70;41.97;;;;;;;5.50;100.00;98806.59;5025481;28;20051;-63
2022/11/15 03:20:17;;;;;;;273.00;45.77;;;;;;;5.48;100.00;98808.25;5022450;28;20079;-62
2022/11/15 03:23:04;;;;;;;260.77;46.40;;;;;;;5.49;100.00;98807.44;5029927;28;20056;-61
2022/11/15 03:25:51;;;;;;;250.40;41.00;;;;;;;5.52;100.00;98805.72;5031267;28;20056;-61
2022/11/15 03:28:40;;;;;;;170.90;41.50;;;;;;;5.42;100.00;98780.28;5034618;28;20141;-61
2022/11/15 03:31:46;;;;;;;228.47;45.13;;;;;;;5.55;100.00;98797.28;5031727;28;20131;-60
2022/11/15 03:34:41;;;;;;;167.37;40.13;;;;;;;5.57;100.00;98802.34;5031272;28;20088;-62
2022/11/15 03:37:34;;;;;;;117.93;33.93;;;;;;;5.63;100.00;98799.84;5031178;28;20123;-60
2022/11/15 03:40:24;;;;;;;243.10;44.10;;;;;;;5.59;100.00;98795.59;5029793;28;20669;-60
2022/11/15 03:43:33;;;;;;;344.13;53.17;;;;;;;5.63;100.00;98794.75;5032046;28;20114;-60
2022/11/15 03:46:33;;;;;;;182.03;37.67;;;;;;;5.46;100.00;98767.59;5030854;28;20353;-60
2022/11/15 03:49:22;;;;;;;326.00;49.83;;;;;;;5.47;100.00;98763.38;5031423;28;20062;-60
2022/11/15 03:52:07;;;;;;;101.43;31.07;;;;;;;5.47;100.00;98765.91;5031579;28;20044;-60
2022/11/15 03:54:54;;;;;;;304.67;50.72;;;;;;;5.46;100.00;98759.13;5030313;28;20208;-59
2022/11/15 03:57:38;;;;;;;393.70;55.00;;;;;;;5.49;100.00;98775.22;5030846;28;20053;-60
2022/11/15 04:00:22;;;;;;;272.60;48.23;;;;;;;5.48;100.00;98777.75;5029368;28;20416;-61
2022/11/15 04:03:07;;;;;;;263.00;45.40;;;;;;;5.57;100.00;98774.38;5023832;28;20092;-60
2022/11/15 04:05:54;;;;;;;211.43;41.80;;;;;;;5.62;100.00;98782.88;5031040;28;20131;-60
2022/11/15 04:08:38;;;;;;;146.73;36.30;;;;;;;5.52;100.00;98751.47;5031068;28;20123;-61
2022/11/15 04:11:22;;;;;;;184.90;37.90;;;;;;;5.61;100.00;98774.41;5031119;28;20056;-61
2022/11/15 04:14:06;;;;;;;300.37;45.63;;;;;;;5.72;100.00;98775.31;5026545;28;20048;-61
2022/11/15 04:16:50;;;;;;;162.53;37.37;;;;;;;5.59;100.00;98752.38;5030937;28;20593;-61
2022/11/15 04:25:42;;;;;;;267.73;42.13;;;;;;;5.81;100.00;98760.03;5029331;28;20056;-60
2022/11/15 04:28:26;;;;;;;165.35;36.58;;;;;;;5.85;100.00;98760.91;5030131;28;20049;-62
2022/11/15 04:31:10;;;;;;;183.93;37.87;;;;;;;5.83;100.00;98753.28;5031323;28;20059;-61
2022/11/15 04:33:54;;;;;;;189.17;37.33;;;;;;;5.92;100.00;98729.56;5027874;28;20544;-60
2022/11/15 04:39:43;;;;;;;193.77;37.17;;;;;;;6.11;100.00;98749.06;5029772;28;20747;-61
2022/11/15 04:42:27;;;;;;;374.70;57.65;;;;;;;6.05;100.00;98746.53;5030472;28;20132;-61
2022/11/15 04:45:11;;;;;;;197.20;37.93;;;;;;;6.05;100.00;98749.09;5029958;28;20107;-62
2022/11/15 04:47:55;;;;;;;106.00;32.37;;;;;;;6.10;100.00;98742.31;5029234;28;20072;-61
2022/11/15 04:50:39;;;;;;;124.27;35.73;;;;;;;6.13;100.00;98737.22;5030748;28;20072;-61
2022/11/15 04:53:23;;;;;;;254.57;47.50;;;;;;;6.22;100.00;98741.47;5029009;28;20088;-62
2022/11/15 04:56:07;;;;;;;102.90;35.43;;;;;;;6.18;100.00;98707.53;5029336;28;20047;-60
2022/11/15 04:58:52;;;;;;;95.30;32.53;;;;;;;6.51;100.00;98726.16;5029608;28;20088;-60
2022/11/15 05:01:37;;;;;;;109.55;33.70;;;;;;;6.64;100.00;98720.19;5026206;28;20128;-60
2022/11/15 05:04:21;;;;;;;208.40;39.10;;;;;;;6.39;100.00;98712.59;5023267;28;21117;-61
2022/11/15 05:07:05;;;;;;;86.10;31.33;;;;;;;6.38;100.00;98717.69;5030482;28;20075;-60
2022/11/15 05:09:49;;;;;;;127.03;31.67;;;;;;;6.32;100.00;98707.53;5030800;28;20076;-60
2022/11/15 05:12:34;;;;;;;122.57;38.10;;;;;;;6.18;100.00;98704.13;5031142;28;20110;-60
2022/11/15 05:15:19;;;;;;;111.55;30.40;;;;;;;6.19;100.00;98723.66;5029924;28;20067;-60
2022/11/15 05:18:04;;;;;;;177.00;35.40;;;;;;;6.20;100.00;98727.88;5030086;28;20060;-60
2022/11/15 05:20:48;;;;;;;97.57;33.60;;;;;;;6.21;100.00;98715.16;5030783;28;20127;-61
2022/11/15 05:23:33;;;;;;;141.90;32.70;;;;;;;6.18;100.00;98720.25;5027730;28;20092;-61
2022/11/15 05:26:18;;;;;;;121.23;32.57;;;;;;;6.06;100.00;98693.97;5039211;28;20503;-61
2022/11/15 05:29:02;;;;;;;98.97;32.53;;;;;;;6.21;100.00;98714.31;5030979;28;20412;-60
2022/11/15 05:31:47;;;;;;;116.40;31.73;;;;;;;6.19;100.00;98721.09;5030484;28;20067;-61
2022/11/15 05:34:32;;;;;;;114.13;30.85;;;;;;;6.20;100.00;98717.69;5031802;28;20159;-61
2022/11/15 05:37:17;;;;;;;119.30;30.47;;;;;;;6.17;100.00;98705.81;5030269;28;20111;-61
2022/11/15 05:40:01;;;;;;;103.35;31.08;;;;;;;6.18;100.00;98699.91;5029284;28;20060;-61
2022/11/15 05:42:45;;;;;;;113.47;33.87;;;;;;;6.23;100.00;98707.53;5029766;28;20131;-62
2022/11/15 05:45:32;;;;;;;115.72;34.80;;;;;;;6.20;100.00;98700.72;5029306;28;20052;-61
2022/11/15 05:48:17;;;;;;;142.67;30.70;;;;;;;6.13;100.00;98690.56;5030169;28;20075;-62
2022/11/15 05:51:03;;;;;;;333.60;40.30;;;;;;;6.17;100.00;98710.91;5030225;28;20075;-59
2022/11/15 05:53:49;;;;;;;127.50;31.17;;;;;;;6.10;100.00;98708.38;5029280;28;20060;-61
2022/11/15 05:56:34;;;;;;;;;;;;;;;6.15;100.00;98715.16;5031184;28;20124;-60
2022/11/15 05:59:18;;;;;;;154.40;44.40;;;;;;;6.09;100.00;98710.06;5030608;28;19936;-61
2022/11/15 06:02:03;;;;;;;148.43;39.20;;;;;;;6.17;100.00;98722.78;5028581;28;20052;-60
2022/11/15 06:04:47;;;;;;;107.47;38.13;;;;;;;6.18;100.00;98720.25;5029762;28;20199;-61
2022/11/15 06:07:31;;;;;;;125.60;32.23;;;;;;;6.19;100.00;98709.22;5028875;28;20055;-60
2022/11/15 06:10:16;;;;;;;113.05;30.98;;;;;;;6.05;100.00;98687.16;5029816;28;20057;-60
2022/11/15 06:13:04;;;;;;;88.13;27.80;;;;;;;6.13;100.00;98706.69;5031188;28;20139;-63
2022/11/15 06:15:48;;;;;;;100.10;28.17;;;;;;;6.08;100.00;98689.69;5030066;28;20083;-65
2022/11/15 06:18:33;;;;;;;122.23;29.93;;;;;;;6.16;100.00;98709.22;5030075;28;20053;-63
2022/11/15 06:21:17;;;;;;;111.40;28.88;;;;;;;5.99;100.00;98698.19;5032777;28;20052;-62
2022/11/15 06:24:02;;;;;;;100.43;28.37;;;;;;;6.07;100.00;98711.75;5032729;28;20068;-60
2022/11/15 06:26:47;;;;;;;111.65;33.33;;;;;;;6.13;100.00;98714.31;5032892;28;20056;-63
2022/11/15 06:29:31;;;;;;;112.03;28.83;;;;;;;6.16;100.00;98709.22;5030523;28;20465;-63
2022/11/15 06:32:15;;;;;;;107.83;27.13;;;;;;;6.18;100.00;98706.69;5025998;28;20072;-63
2022/11/15 06:34:59;;;;;;;80.03;26.37;;;;;;;6.13;100.00;98714.31;5023867;28;20665;-64
2022/11/15 06:37:44;;;;;;;82.33;27.70;;;;;;;6.03;100.00;98688.84;5025759;28;20541;-63
2022/11/15 06:40:28;;;;;;;118.10;29.43;;;;;;;6.14;100.00;98705.84;5028742;28;20581;-62
2022/11/15 06:43:12;;;;;;;85.77;27.07;;;;;;;6.07;100.00;98681.22;5031325;28;20122;-62
2022/11/15 06:46:01;;;;;;;71.27;26.33;;;;;;;6.25;100.00;98701.56;5027647;28;20103;-62
2022/11/15 06:48:47;;;;;;;92.93;27.67;;;;;;;6.25;100.00;98708.34;5024399;28;20099;-62
2022/11/15 06:51:31;;;;;;;90.72;26.88;;;;;;;6.26;100.00;98707.50;5031022;28;20106;-63
2022/11/15 06:54:15;;;;;;;85.50;27.13;;;;;;;6.27;100.00;98712.63;5032812;28;20417;-63
2022/11/15 06:57:00;;;;;;;80.13;27.63;;;;;;;6.16;100.00;98691.41;5032060;28;20060;-63
2022/11/15 06:59:44;;;;;;;68.30;27.60;;;;;;;6.32;100.00;98712.63;5030551;28;20110;-63
2022/11/15 07:02:28;;;;;;;73.63;25.60;;;;;;;6.36;100.00;98717.72;5028919;28;20095;-63
2022/11/15 07:05:12;;;;;;;89.53;26.60;;;;;;;6.31;100.00;98690.53;5026054;28;20471;-61
2022/11/15 07:07:57;;;;;;;115.77;28.33;;;;;;;6.39;100.00;98710.06;5025844;28;20198;-63
2022/11/15 07:10:42;;;;;;;105.32;27.35;;;;;;;6.20;100.00;98702.41;5025891;28;20080;-62
2022/11/15 07:13:27;;;;;;;75.03;25.70;;;;;;;6.17;100.00;98689.69;5025678;28;20088;-62
2022/11/15 07:16:11;;;;;;;75.20;23.90;;;;;;;6.22;100.00;98693.94;5023731;28;20048;-63
2022/11/15 07:18:56;;;;;;;85.77;26.90;;;;;;;6.32;100.00;98713.44;5030845;28;20078;-64
2022/11/15 07:21:40;;;;;;;94.73;24.80;;;;;;;6.32;100.00;98712.63;5030220;28;20131;-62
2022/11/15 07:24:24;;;;;;;86.10;25.67;;;;;;;6.32;100.00;98713.44;5030305;28;20116;-62
2022/11/15 07:27:08;;;;;;;84.10;27.23;;;;;;;6.33;100.00;98704.97;5031665;28;20060;-61
2022/11/15 07:29:52;;;;;;;86.00;25.87;;;;;;;6.35;100.00;98712.59;5031368;28;20139;-61
2022/11/15 07:32:36;;;;;;;93.50;26.47;;;;;;;6.40;100.00;98713.47;5028205;28;20588;-62
2022/11/15 07:35:20;;;;;;;100.70;25.03;;;;;;;6.36;100.00;98715.16;5030425;28;20107;-62
2022/11/15 07:38:04;;;;;;;64.17;25.03;;;;;;;6.32;100.00;98687.97;5030845;28;20057;-61
2022/11/15 07:40:59;;;;;;;61.20;23.53;;;;;;;6.48;100.00;98704.09;5030642;28;20057;-61
2022/11/15 07:43:45;;;;;;;54.60;24.83;;;;;;;6.40;100.00;98685.44;5029484;28;20068;-61
2022/11/15 07:46:29;;;;;;;;;;;;;;;6.55;100.00;98704.94;5029464;28;20056;-62
2022/11/15 07:49:14;;;;;;;51.83;21.75;;;;;;;6.63;100.00;98698.13;5027234;28;19928;-62
2022/11/15 07:51:58;;;;;;;49.05;22.65;;;;;;;6.65;100.00;98692.19;5029504;28;20130;-62
2022/11/15 07:54:42;;;;;;;50.22;23.02;;;;;;;6.57;100.00;98665.03;5027286;28;20126;-61
2022/11/15 07:57:26;;;;;;;58.97;22.83;;;;;;;6.67;100.00;98695.56;5026680;28;20103;-62
2022/11/15 08:00:11;;;;;;;51.30;22.08;;;;;;;6.72;100.00;98683.66;5030059;28;20084;-62
2022/11/15 08:03:10;;;;;;;59.05;22.77;;;;;;;6.69;100.00;98675.19;5029842;28;20190;-62
2022/11/15 08:05:54;;;;;;;68.70;24.13;;;;;;;6.65;100.00;98665.84;5030697;28;20056;-61
2022/11/15 08:08:39;;;;;;;67.85;23.35;;;;;;;6.69;100.00;98673.50;5027603;28;20075;-65
2022/11/15 08:11:23;;;;;;;55.45;22.27;;;;;;;6.70;100.00;98667.56;5025111;28;20052;-62
2022/11/15 08:14:08;;;;;;;54.00;24.13;;;;;;;6.75;100.00;98691.28;5029976;28;20582;-61
2022/11/15 08:16:52;;;;;;;54.40;21.00;;;;;;;6.64;100.00;98698.13;5029311;28;20053;-64
2022/11/15 08:19:36;;;;;;;51.90;21.60;;;;;;;6.68;100.00;98674.34;5027680;28;20055;-61
2022/11/15 08:22:21;;;;;;;56.35;21.65;;;;;;;6.81;100.00;98695.53;5032093;28;20060;-61
2022/11/15 08:25:05;;;;;;;47.85;22.48;;;;;;;6.79;100.00;98692.97;5027552;28;20088;-62
2022/11/15 08:27:52;;;;;;;45.08;19.00;;;;;;;6.74;100.00;98668.38;5028710;28;20103;-60
2022/11/15 08:30:42;;;;;;;51.55;22.42;;;;;;;6.84;100.00;98677.66;5029556;28;20056;-61
2022/11/15 08:33:25;;;;;;;42.85;19.80;;;;;;;6.90;100.00;98682.75;5030313;28;20122;-61
2022/11/15 08:36:16;;;;;;;55.08;20.95;;;;;;;6.88;100.00;98687.84;5026677;28;20045;-61
2022/11/15 08:39:00;;;;;;;47.58;21.17;;;;;;;6.84;100.00;98670.88;5028752;28;20128;-61
2022/11/15 08:41:44;;;;;;;44.80;20.40;;;;;;;7.04;100.00;98685.25;5028426;28;20578;-61
2022/11/15 08:44:29;;;;;;;51.67;20.20;;;;;;;6.95;100.00;98680.19;5026703;28;20060;-61
2022/11/15 08:47:13;;;;;;;50.75;23.17;;;;;;;7.08;100.00;98682.69;5022690;28;20133;-60
2022/11/15 08:49:58;;;;;;;43.40;19.73;;;;;;;7.13;100.00;98672.47;5022573;28;20088;-61
2022/11/15 08:52:42;;;;;;;42.22;19.48;;;;;;;7.04;100.00;98658.06;5027627;28;20176;-61
2022/11/15 08:55:26;;;;;;;47.63;19.55;;;;;;;7.24;100.00;98675.81;5005338;28;20507;-60
2022/11/15 08:58:10;;;;;;;45.22;22.02;;;;;;;7.14;100.00;98672.44;5028884;28;20048;-61
2022/11/15 09:00:54;;;;;;;42.45;20.45;;;;;;;7.00;100.00;98668.28;5021911;28;20132;-61
2022/11/15 09:03:40;;;;;;;40.57;18.53;;;;;;;7.45;100.00;98669.75;5023882;28;20500;-63
2022/11/15 09:06:25;;;;;;;42.05;20.27;;;;;;;7.51;100.00;98651.88;5030449;28;20119;-61
2022/11/15 09:09:09;;;;;;;37.28;19.55;;;;;;;8.05;100.00;98665.91;5030158;28;20600;-60
2022/11/15 09:11:53;;;;;;;37.72;18.48;;;;;;;8.04;100.00;98648.91;5029807;28;20523;-60
2022/11/15 09:14:37;;;;;;;51.50;19.52;;;;;;;7.59;100.00;98638.19;5027115;28;20107;-61
2022/11/15 09:17:21;;;;;;;53.53;19.80;;;;;;;7.69;100.00;98655.13;5023506;28;20119;-60
2022/11/15 09:20:06;;;;;;;47.08;19.63;;;;;;;7.80;100.00;98630.38;5029100;28;20132;-59
2022/11/15 09:22:50;;;;;;;42.28;20.73;;;;;;;8.35;100.00;98644.38;5029143;28;20052;-59
2022/11/15 09:25:34;;;;;;;58.03;20.35;;;;;;;8.49;100.00;98633.16;5029149;28;20099;-59
2022/11/15 09:28:19;;;;;;;47.28;21.20;;;;;;;8.33;100.00;98633.31;5026470;28;20590;-60
2022/11/15 09:31:05;;;;;;;50.30;19.55;;;;;;;8.00;100.00;98614.88;5022061;28;20052;-57
2022/11/15 09:33:50;;;;;;;59.08;20.10;;;;;;;8.04;100.00;98639.53;5028306;28;20100;-62
2022/11/15 09:36:34;;;;;;;47.33;22.80;;;;;;;7.96;100.00;98618.34;5027831;28;20183;-62
2022/11/15 09:39:18;;;;;;;79.22;23.65;;;;;;;8.23;100.00;98630.81;5022017;28;20076;-59
2022/11/15 09:42:28;;;;;;;50.75;25.42;;;;;;;8.45;100.00;98634.03;5028070;28;20074;-63
2022/11/15 09:45:36;;;;;;;65.72;25.02;;;;;;;8.30;100.00;98621.44;5028687;28;20095;-61
2022/11/15 09:48:46;;;;;;;65.57;21.70;;;;;;;8.32;100.00;98622.25;5019349;28;20057;-60
2022/11/15 09:51:46;;;;;;;48.22;22.63;;;;;;;8.34;100.00;98600.13;5032272;28;20022;-63
2022/11/15 09:54:18;;;;;;;46.03;22.70;;;;;;;8.30;100.00;98598.47;5031363;28;20526;-60
2022/11/15 09:56:44;;;;;;;47.15;21.00;;;;;;;8.37;100.00;98592.41;5031694;28;20037;-60
2022/11/15 09:59:12;;;;;;;65.97;30.42;;;;;;;8.59;100.00;98613.47;5033319;28;20059;-62
2022/11/15 10:02:16;;;;;;;59.75;26.48;;;;;;;8.36;100.00;98607.78;5027600;28;20974;-60
2022/11/15 10:04:43;;;;;;;50.22;22.13;;;;;;;8.26;100.00;98605.28;4940644;29;20232;-60
2022/11/15 10:07:31;;;;;;;39.13;19.77;;;;;;;8.18;100.00;98601.97;4940399;29;20081;-59
2022/11/15 10:10:04;;;;;;;55.17;22.83;;;;;;;8.12;100.00;98601.16;4941391;29;20035;-60
2022/11/15 10:12:31;;;;;;;101.22;23.80;;;;;;;7.89;100.00;98593.72;4939970;28;20051;-62
2022/11/15 10:15:15;;;;;;;65.63;27.10;;;;;;;7.75;100.00;98570.88;4941106;29;20105;-63
2022/11/15 10:18:04;;;;;;;41.83;19.27;;;;;;;7.93;100.00;98574.13;4922688;29;20065;-60
2022/11/15 10:20:54;;;;;;;44.75;21.27;;;;;;;8.01;100.00;98562.13;4935365;29;20055;-61
2022/11/15 10:23:22;;;;;;;43.55;20.95;;;;;;;7.94;100.00;98540.06;4945447;29;20039;-61
2022/11/15 10:25:52;;;;;;;54.17;22.55;;;;;;;8.11;100.00;98556.91;4940718;29;20142;-61
2022/11/15 10:28:30;;;;;;;51.83;24.85;;;;;;;8.03;100.00;98553.59;4940574;29;20042;-62
2022/11/15 10:30:58;;;;;;;61.45;24.63;;;;;;;7.98;100.00;98536.63;4936266;28;20070;-60
2022/11/15 10:33:36;;;;;;;57.75;25.25;;;;;;;8.06;100.00;98555.28;4934907;29;20039;-59
2022/11/15 10:36:12;;;;;;;65.15;27.77;;;;;;;8.13;100.00;98562.00;4939337;29;20063;-63
2022/11/15 10:38:50;;;;;;;63.35;30.90;;;;;;;8.10;100.00;98555.22;4974075;28;20057;-63
2022/11/15 10:41:29;;;;;;;62.08;30.15;;;;;;;8.14;100.00;98551.78;5023589;28;20720;-66
2022/11/15 10:44:06;;;;;;;55.67;26.50;;;;;;;8.15;100.00;98545.78;5016274;28;20064;-62
2022/11/15 10:46:34;;;;;;;78.00;27.38;;;;;;;7.99;100.00;98528.09;5030781;28;20095;-63
2022/11/15 10:49:15;;;;;;;72.28;33.35;;;;;;;7.95;100.00;98534.09;5029274;28;20503;-64
2022/11/15 10:52:16;;;;;;;57.70;27.15;;;;;;;7.97;100.00;98533.25;5031142;28;20069;-61
2022/11/15 10:54:48;;;;;;;51.17;23.98;;;;;;;8.02;100.00;98523.81;5032534;28;20067;-61
2022/11/15 10:57:18;;;;;;;45.58;24.27;;;;;;;8.11;100.00;98523.72;5031273;28;20041;-61
2022/11/15 11:00:00;;;;;;;65.72;26.25;;;;;;;7.94;100.00;98487.31;5030358;28;20037;-61
2022/11/15 11:02:31;;;;;;;53.00;24.75;;;;;;;8.11;100.00;98513.50;5030348;28;20044;-62
2022/11/15 11:04:58;;;;;;;58.88;25.88;;;;;;;8.10;100.00;98509.28;5031046;28;20135;-63
2022/11/15 11:07:28;;;;;;;60.60;25.35;;;;;;;7.97;100.00;98492.41;5029683;28;20069;-63
2022/11/15 11:10:13;;;;;;;81.00;26.42;;;;;;;8.00;100.00;98510.22;5030573;28;20132;-62
2022/11/15 11:12:39;;;;;;;54.00;24.98;;;;;;;7.96;100.00;98506.03;5034389;28;20037;-64
2022/11/15 11:15:12;;;;;;;52.60;26.27;;;;;;;7.88;100.00;98479.72;5033209;28;20091;-63
2022/11/15 11:17:50;;;;;;;49.35;23.83;;;;;;;8.04;100.00;98498.28;5027179;28;20037;-61
2022/11/15 11:20:27;;;;;;;57.28;25.20;;;;;;;8.00;100.00;98482.16;5029344;28;20091;-62
2022/11/15 11:23:11;;;;;;;59.35;27.50;;;;;;;8.06;100.00;98488.91;5044805;28;20045;-62
2022/11/15 11:25:40;;;;;;;67.35;25.73;;;;;;;8.06;100.00;98483.78;5035059;28;20025;-61
2022/11/15 11:28:22;;;;;;;59.17;25.27;;;;;;;7.99;100.00;98469.38;5036810;28;20032;-61
2022/11/15 11:31:13;;;;;;;56.88;26.88;;;;;;;8.10;100.00;98488.00;5035349;28;20044;-61
2022/11/15 11:33:57;;;;;;;64.28;26.77;;;;;;;8.08;100.00;98466.72;5024647;28;20377;-62
2022/11/15 11:36:38;;;;;;;57.83;26.13;;;;;;;8.18;100.00;98466.63;5027973;28;20125;-63
2022/11/15 11:39:18;;;;;;;54.72;25.92;;;;;;;8.21;100.00;98461.47;5021492;28;20113;-65
2022/11/15 11:42:01;;;;;;;55.03;25.15;;;;;;;8.17;100.00;98462.38;5029179;28;20427;-61
2022/11/15 11:44:27;;;;;;;56.17;26.15;;;;;;;8.27;100.00;98455.44;5024811;28;20068;-61
2022/11/15 11:47:17;;;;;;;54.03;25.70;;;;;;;8.28;100.00;98455.41;5023980;28;20460;-61
2022/11/15 11:50:11;;;;;;;56.47;26.05;;;;;;;8.31;100.00;98448.63;5023253;28;20127;-63
2022/11/15 11:52:57;;;;;;;56.78;27.58;;;;;;;8.31;100.00;98441.81;5030687;28;20065;-60
2022/11/15 11:55:38;;;;;;;61.55;26.90;;;;;;;8.40;100.00;98445.94;5029747;28;20142;-62
2022/11/15 11:58:19;;;;;;;57.58;25.80;;;;;;;8.32;100.00;98435.00;5040684;28;20133;-60
2022/11/15 12:00:51;;;;;;;61.65;27.23;;;;;;;8.31;100.00;98425.63;5029571;28;20037;-62
2022/11/15 12:03:27;;;;;;;50.95;26.85;;;;;;;8.43;100.00;98422.91;5029919;28;20116;-61
2022/11/15 12:05:58;;;;;;;59.20;27.27;;;;;;;8.40;100.00;98412.75;5029308;28;20132;-61
2022/11/15 12:08:33;;;;;;;57.40;27.38;;;;;;;8.42;100.00;98411.84;5029577;28;20037;-61
2022/11/15 12:11:28;;;;;;;52.10;25.08;;;;;;;8.42;100.00;98404.19;5030297;28;20029;-60
2022/11/15 12:13:58;;;;;;;54.65;25.17;;;;;;;8.43;100.00;98399.91;4947107;28;20043;-60
2022/11/15 12:16:28;;;;;;;54.85;25.67;;;;;;;8.40;100.00;98390.56;4949568;28;20043;-62
2022/11/15 12:19:00;;;;;;;55.92;26.50;;;;;;;8.40;100.00;98382.09;4928661;28;20057;-61
2022/11/15 12:21:34;;;;;;;57.80;28.80;;;;;;;8.40;100.00;98392.31;4947876;28;20704;-63
2022/11/15 12:24:07;;;;;;;61.10;28.83;;;;;;;8.38;100.00;98387.22;4948259;28;20123;-58
2022/11/15 12:26:48;;;;;;;56.55;26.50;;;;;;;8.40;100.00;98382.09;4938784;28;20293;-59
2022/11/15 12:29:26;;;;;;;65.75;27.48;;;;;;;8.37;100.00;98377.84;4929634;28;20104;-61
2022/11/15 12:31:56;;;;;;;56.75;26.25;;;;;;;8.24;100.00;98355.88;4936572;28;20063;-66
2022/11/15 12:34:22;;;;;;;56.35;26.17;;;;;;;8.34;100.00;98370.25;4940825;28;20051;-61
2022/11/15 12:36:51;;;;;;;60.92;27.92;;;;;;;8.21;100.00;98368.69;4941919;28;20055;-60
2022/11/15 12:39:17;;;;;;;66.18;26.67;;;;;;;8.16;100.00;98366.19;4944605;28;20051;-63
2022/11/15 12:41:55;;;;;;;59.78;27.10;;;;;;;8.16;100.00;98362.78;4943348;28;20133;-64
2022/11/15 12:44:36;;;;;;;58.00;26.92;;;;;;;8.19;100.00;98363.59;4947801;28;20066;-61
2022/11/15 12:47:23;;;;;;;56.97;25.70;;;;;;;8.05;100.00;98342.53;4947521;28;20047;-63